Quick Links (Output Below):   Max & Min Temps   /   Climate Reports   /   Zone Forecasts
River Forecasts   /   Forestry Forecasts   /   Aviation Forecasts   /   Radars   /   Features

Terminal Aerodrome Forecast (Texarkana)

Pick a Site:
Arkadelphia | El Dorado | Fayetteville | Fort Smith | Harrison | Highfill | Hot Springs | Jonesboro
Little Rock | Monticello | Mountain Home | Pine Bluff | Texarkana
 Forecast 

KTXK 232336Z 2400/2424 19006KT P6SM VCTS BKN060CB BKN250
     FM240200 17003KT P6SM SCT250
     FM241300 17004KT P6SM VCTS SCT045CB BKN150
     FM241700 22006KT P6SM SCT060 BKN250
     FM242000 VRB06KT P6SM SCT150 BKN250=


 Latest METARs (Observations) 
How to Decode METARs
04Z KTXK 240353Z AUTO 00000KT 8SM CLR 24/23 A2994 RMK AO2 RAB0258E10
         SLP134 P0000 T02390228
         
03Z KTXK 240253Z 05007KT 6SM BR CLR 24/23 A2997 RMK AO2 SLP143 60004
         T02390233 51022
         
02Z KTXK 240153Z 00000KT 10SM FEW100 FEW120 25/24 A2995 RMK AO2 RAE50
         SLP137 P0003 T02500239
         
01Z KTXK 240053Z 23003KT 7SM -RA FEW120 26/24 A2995 RMK AO2 RAB28
         SLP136 P0001 T02560239
         
00Z KTXK 232353Z 23008KT 9SM CLR 24/23 A2990 RMK AO2 LTG DSNT SE-W
         RAE25 SLP122 P0000 60037 T02440228 10378 20239 50000
         
***** Today's Observations (Above) *****


23Z KTXK 232253Z 21004KT 10SM -RA FEW120 24/22 A2992 RMK AO2 WSHFT
         2216 LTG DSNT ALQDS RAE41B46 TSE39 SLP129 P0035 T02440222
         
22Z KTXK 232153Z 02018G27KT 5SM -TSRA FEW024 FEW040 OVC065 26/23 A3001
         RMK AO2 PK WND 05033/2132 WSHFT 2107 LTG DSNT ALQDS RAB48
         TSB33 SLP156 P0002 T02610228
         
21Z KTXK 232053Z VRB04KT 10SM VCTS CLR 37/22 A2990 RMK AO2 LTG DSNT
         ALQDS SLP119 T03720217 56021
         
20Z KTXK 231953Z VRB05KT 10SM FEW100 SCT120 37/23 A2992 RMK AO2 LTG
         DSNT N-SE SLP126 T03670228
         
19Z KTXK 231853Z 15006KT 10SM FEW060 SCT100 38/22 A2994 RMK AO2 LTG
         DSNT SE SLP133 T03780222
         
***** Yesterday's Observations (Above) *****


Back to Main Page
http://www.srh.noaa.gov/lzk/qfcst.php

USA.gov is the U.S. government's official web portal to all federal, state and local government web resources and services.